Time;durP1;ratioP1;P1;durP2;ratioP2;P2;SDS_P1;SDS_P2;PMS_P1;PMS_P2;Temp;Humidity;BMP_temperature;BMP_pressure;BME280_temperature;BME280_humidity;BME280_pressure;Samples;Min_cycle;Max_cycle;Signal;HPM_P1;HPM_P2
2021/07/26 00:01:51;;;;;;;27.77;15.70;;;;;;;;;;5036167;28;20045;-77
2021/07/26 00:04:17;;;;;;;22.25;14.52;;;;;;;;;;5025337;28;20041;-77
2021/07/26 00:06:45;;;;;;;20.67;14.25;;;;;;;;;;5015533;28;20069;-77
2021/07/26 00:09:11;;;;;;;18.30;14.55;;;;;;;;;;5021202;28;20068;-77
2021/07/26 00:11:37;;;;;;;24.83;17.08;;;;;;;;;;5024595;28;20131;-77
2021/07/26 00:14:04;;;;;;;17.83;14.38;;;;;;;;;;5019045;28;20053;-77
2021/07/26 00:16:30;;;;;;;21.95;16.83;;;;;;;;;;5023074;28;20048;-77
2021/07/26 00:18:56;;;;;;;19.70;14.80;;;;;;;;;;5021410;28;20049;-77
2021/07/26 00:21:22;;;;;;;20.42;14.95;;;;;;;;;;5017182;28;20189;-77
2021/07/26 00:23:49;;;;;;;21.23;14.95;;;;;;;;;;5016434;28;20062;-77
2021/07/26 00:26:16;;;;;;;17.85;15.25;;;;;;;;;;5017703;28;20691;-77
2021/07/26 00:28:43;;;;;;;19.98;15.63;;;;;;;;;;5017081;28;20077;-77
2021/07/26 00:31:09;;;;;;;20.45;16.10;;;;;;;;;;5015620;28;20041;-77
2021/07/26 00:34:06;;;;;;;25.88;17.63;;;;;;;;;;5032640;28;20086;-77
2021/07/26 00:36:32;;;;;;;28.20;18.80;;;;;;;;;;5016735;28;20046;-77
2021/07/26 00:38:58;;;;;;;34.80;23.30;;;;;;;;;;5017128;28;20073;-77
2021/07/26 00:41:25;;;;;;;26.05;18.98;;;;;;;;;;5015437;28;20053;-77
2021/07/26 00:43:51;;;;;;;32.45;23.83;;;;;;;;;;5016682;28;20053;-77
2021/07/26 00:46:17;;;;;;;29.00;20.58;;;;;;;;;;5016647;28;20057;-77
2021/07/26 00:48:44;;;;;;;26.92;20.67;;;;;;;;;;5017664;28;20087;-77
2021/07/26 00:51:11;;;;;;;23.77;21.10;;;;;;;;;;5016537;28;20179;-77
2021/07/26 00:53:38;;;;;;;23.67;18.42;;;;;;;;;;5014708;28;20183;-77
2021/07/26 00:56:04;;;;;;;23.20;18.17;;;;;;;;;;5017859;28;20033;-77
2021/07/26 00:58:30;;;;;;;21.75;18.30;;;;;;;;;;5019186;28;20135;-77
2021/07/26 01:00:56;;;;;;;25.67;18.33;;;;;;;;;;5016924;28;20923;-77
2021/07/26 01:03:23;;;;;;;23.35;19.08;;;;;;;;;;5018162;28;20079;-77
2021/07/26 01:05:49;;;;;;;26.67;19.55;;;;;;;;;;5038666;28;20041;-77
2021/07/26 01:08:15;;;;;;;23.23;19.23;;;;;;;;;;5022704;28;20051;-77
2021/07/26 01:10:41;;;;;;;25.42;18.98;;;;;;;;;;5019410;28;20049;-77
2021/07/26 01:13:07;;;;;;;25.35;21.17;;;;;;;;;;5019939;28;20473;-77
2021/07/26 01:15:34;;;;;;;27.23;20.23;;;;;;;;;;5018172;28;20046;-77
2021/07/26 01:18:22;;;;;;;23.75;21.05;;;;;;;;;;5024197;28;20397;-77
2021/07/26 01:20:49;;;;;;;26.48;20.02;;;;;;;;;;5019153;28;20048;-77
2021/07/26 01:23:16;;;;;;;25.00;20.30;;;;;;;;;;5020164;28;20037;-77
2021/07/26 01:25:42;;;;;;;23.52;19.60;;;;;;;;;;5019402;28;20046;-77
2021/07/26 01:28:08;;;;;;;22.92;18.45;;;;;;;;;;5020274;28;20042;-77
2021/07/26 01:30:34;;;;;;;23.25;19.25;;;;;;;;;;5020041;28;20081;-77
2021/07/26 01:33:01;;;;;;;26.95;18.42;;;;;;;;;;5017128;28;20041;-77
2021/07/26 01:35:27;;;;;;;22.50;19.02;;;;;;;;;;5016111;28;20061;-77
2021/07/26 01:37:53;;;;;;;23.77;19.50;;;;;;;;;;5020742;28;20131;-77
2021/07/26 01:40:19;;;;;;;24.02;18.75;;;;;;;;;;5018234;28;20571;-77
2021/07/26 01:42:46;;;;;;;24.10;19.00;;;;;;;;;;5017078;28;20469;-77
2021/07/26 01:45:12;;;;;;;25.10;19.90;;;;;;;;;;5023340;28;20049;-77
2021/07/26 01:47:42;;;;;;;25.60;20.67;;;;;;;;;;5025213;28;20060;-77
2021/07/26 01:50:09;;;;;;;29.77;22.20;;;;;;;;;;5025775;28;20056;-77
2021/07/26 01:52:36;;;;;;;27.60;20.55;;;;;;;;;;5021732;28;20053;-77
2021/07/26 01:55:02;;;;;;;27.58;22.35;;;;;;;;;;5018789;28;20044;-77
2021/07/26 01:57:28;;;;;;;27.15;21.27;;;;;;;;;;5021814;28;20060;-77
2021/07/26 01:59:55;;;;;;;25.55;20.23;;;;;;;;;;5023370;28;20053;-77
2021/07/26 02:02:23;;;;;;;27.90;21.52;;;;;;;;;;5022382;28;20405;-77
2021/07/26 02:04:50;;;;;;;29.67;21.00;;;;;;;;;;5020691;28;20037;-77
2021/07/26 02:07:16;;;;;;;23.90;19.73;;;;;;;;;;5020261;28;20125;-77
2021/07/26 02:09:43;;;;;;;30.20;21.60;;;;;;;;;;5021465;28;20041;-77
2021/07/26 02:12:09;;;;;;;27.45;20.00;;;;;;;;;;5020035;28;20060;-77
2021/07/26 02:14:35;;;;;;;25.67;19.55;;;;;;;;;;5022619;28;20477;-77
2021/07/26 02:17:02;;;;;;;22.60;18.13;;;;;;;;;;5020299;28;20393;-77
2021/07/26 02:19:29;;;;;;;19.40;16.88;;;;;;;;;;5024635;28;20053;-77
2021/07/26 02:21:55;;;;;;;24.23;18.52;;;;;;;;;;5027489;28;20086;-77
2021/07/26 02:24:21;;;;;;;21.05;17.48;;;;;;;;;;5023067;28;20545;-77
2021/07/26 02:26:47;;;;;;;32.65;20.23;;;;;;;;;;5021610;28;20045;-77
2021/07/26 02:29:14;;;;;;;23.73;19.23;;;;;;;;;;5018939;28;20044;-77
2021/07/26 02:31:40;;;;;;;23.90;18.77;;;;;;;;;;5018596;28;20069;-77
2021/07/26 02:34:06;;;;;;;25.83;16.77;;;;;;;;;;5021740;28;20041;-77
2021/07/26 02:36:32;;;;;;;23.48;17.10;;;;;;;;;;5021750;28;20038;-77
2021/07/26 02:38:59;;;;;;;21.20;16.80;;;;;;;;;;5022990;28;20064;-77
2021/07/26 02:41:26;;;;;;;24.67;18.10;;;;;;;;;;5026213;28;20118;-77
2021/07/26 02:43:52;;;;;;;27.60;19.88;;;;;;;;;;5021952;28;20133;-77
2021/07/26 02:46:18;;;;;;;26.98;19.85;;;;;;;;;;5022137;28;20041;-77
2021/07/26 02:48:47;;;;;;;19.75;17.67;;;;;;;;;;5019638;28;20041;-77
2021/07/26 02:51:14;;;;;;;24.30;19.92;;;;;;;;;;5022677;28;20045;-77
2021/07/26 02:53:41;;;;;;;24.15;18.65;;;;;;;;;;5017079;28;20076;-77
2021/07/26 02:56:08;;;;;;;25.85;19.00;;;;;;;;;;5023090;28;20041;-77
2021/07/26 02:58:34;;;;;;;25.42;19.02;;;;;;;;;;5034571;28;20112;-77
2021/07/26 03:01:01;;;;;;;22.48;18.42;;;;;;;;;;5019510;28;20049;-77
2021/07/26 03:03:27;;;;;;;22.63;19.15;;;;;;;;;;5018875;28;20045;-77
2021/07/26 03:05:53;;;;;;;22.83;18.33;;;;;;;;;;5018671;28;20034;-77
2021/07/26 03:08:20;;;;;;;18.67;15.20;;;;;;;;;;5018438;28;20056;-77
2021/07/26 03:10:46;;;;;;;20.25;16.73;;;;;;;;;;5018532;28;20045;-77
2021/07/26 03:13:12;;;;;;;20.38;16.40;;;;;;;;;;5023589;28;20053;-77
2021/07/26 03:15:38;;;;;;;24.67;19.63;;;;;;;;;;5017417;28;20061;-77
2021/07/26 03:18:06;;;;;;;26.23;19.00;;;;;;;;;;5022617;28;20137;-77
2021/07/26 03:20:32;;;;;;;20.30;17.40;;;;;;;;;;5021886;28;20056;-77
2021/07/26 03:23:01;;;;;;;21.05;16.75;;;;;;;;;;5018889;28;20045;-77
2021/07/26 03:25:28;;;;;;;21.40;16.95;;;;;;;;;;5017913;28;20052;-77
2021/07/26 03:27:55;;;;;;;20.90;16.90;;;;;;;;;;5020392;28;20049;-77
2021/07/26 03:30:22;;;;;;;20.35;15.80;;;;;;;;;;5019445;28;20530;-77
2021/07/26 03:32:48;;;;;;;20.65;15.73;;;;;;;;;;5017813;28;20041;-77
2021/07/26 03:35:15;;;;;;;23.45;18.85;;;;;;;;;;5017074;28;20042;-77
2021/07/26 03:37:42;;;;;;;24.27;19.63;;;;;;;;;;5019113;28;20068;-77
2021/07/26 03:40:09;;;;;;;21.20;16.67;;;;;;;;;;5020986;28;20072;-77
2021/07/26 03:42:35;;;;;;;23.25;16.90;;;;;;;;;;5019344;28;20085;-77
2021/07/26 03:45:03;;;;;;;24.55;18.75;;;;;;;;;;5023152;28;20070;-77
2021/07/26 03:47:29;;;;;;;21.17;17.63;;;;;;;;;;5016795;28;20077;-77
2021/07/26 03:49:55;;;;;;;23.52;18.20;;;;;;;;;;5020896;28;20053;-77
2021/07/26 03:52:23;;;;;;;26.88;19.27;;;;;;;;;;5016362;28;20060;-77
2021/07/26 03:54:49;;;;;;;24.45;20.10;;;;;;;;;;5014956;28;20049;-77
2021/07/26 03:57:15;;;;;;;33.45;19.92;;;;;;;;;;5016660;28;20116;-77
2021/07/26 03:59:41;;;;;;;26.85;19.60;;;;;;;;;;5022564;28;20053;-77
2021/07/26 04:02:08;;;;;;;25.63;19.42;;;;;;;;;;5020422;28;20076;-77
2021/07/26 04:04:34;;;;;;;24.38;20.13;;;;;;;;;;5019014;28;20073;-77
2021/07/26 04:07:04;;;;;;;28.15;21.58;;;;;;;;;;5018056;28;20046;-77
2021/07/26 04:09:36;;;;;;;22.60;19.67;;;;;;;;;;5021854;28;20041;-77
2021/07/26 04:12:06;;;;;;;29.35;20.90;;;;;;;;;;5020187;28;20080;-77
2021/07/26 04:14:36;;;;;;;33.20;22.65;;;;;;;;;;5021833;28;20124;-77
2021/07/26 04:17:02;;;;;;;27.08;20.70;;;;;;;;;;5022015;28;20133;-77
2021/07/26 04:19:30;;;;;;;20.75;18.42;;;;;;;;;;5019817;28;20137;-77
2021/07/26 04:21:57;;;;;;;23.67;17.83;;;;;;;;;;5020039;28;20401;-77
2021/07/26 04:24:25;;;;;;;25.23;19.08;;;;;;;;;;5015743;28;20053;-77
2021/07/26 04:26:51;;;;;;;23.13;18.05;;;;;;;;;;5023363;28;20410;-77
2021/07/26 04:29:19;;;;;;;23.95;19.73;;;;;;;;;;5017751;28;20072;-77
2021/07/26 04:31:47;;;;;;;28.00;21.13;;;;;;;;;;5038851;28;20049;-77
2021/07/26 04:34:19;;;;;;;25.55;22.20;;;;;;;;;;5018488;28;20203;-77
2021/07/26 04:36:45;;;;;;;26.15;21.25;;;;;;;;;;5022156;28;20046;-77
2021/07/26 04:39:12;;;;;;;27.77;20.58;;;;;;;;;;5020896;28;20056;-77
2021/07/26 04:41:38;;;;;;;25.75;19.85;;;;;;;;;;5019097;28;20429;-76
2021/07/26 04:44:04;;;;;;;26.85;20.15;;;;;;;;;;5016611;28;20113;-76
2021/07/26 04:46:32;;;;;;;28.88;20.95;;;;;;;;;;5018681;28;20073;-76
2021/07/26 04:49:07;;;;;;;26.65;21.77;;;;;;;;;;5017911;28;20072;-77
2021/07/26 04:51:33;;;;;;;30.30;24.33;;;;;;;;;;5015951;28;20114;-77
2021/07/26 04:53:59;;;;;;;30.42;23.40;;;;;;;;;;5019334;28;20045;-77
2021/07/26 04:56:25;;;;;;;25.25;22.45;;;;;;;;;;5022569;28;20119;-77
2021/07/26 04:58:52;;;;;;;28.98;23.02;;;;;;;;;;5017572;28;20104;-77
2021/07/26 05:01:18;;;;;;;26.20;21.55;;;;;;;;;;5020344;28;20064;-77
2021/07/26 05:03:45;;;;;;;24.13;20.33;;;;;;;;;;5018737;28;20126;-77
2021/07/26 05:06:11;;;;;;;25.67;19.15;;;;;;;;;;5020613;28;20048;-77
2021/07/26 05:08:37;;;;;;;24.27;20.02;;;;;;;;;;5017676;28;20072;-77
2021/07/26 05:11:03;;;;;;;25.42;21.10;;;;;;;;;;5022174;28;20038;-77
2021/07/26 05:13:29;;;;;;;24.23;20.17;;;;;;;;;;5016415;28;20180;-77
2021/07/26 05:15:56;;;;;;;25.33;21.05;;;;;;;;;;5017471;28;20050;-77
2021/07/26 05:18:23;;;;;;;27.55;19.80;;;;;;;;;;5024788;28;20045;-77
2021/07/26 05:20:50;;;;;;;23.45;20.05;;;;;;;;;;5025309;28;20041;-77
2021/07/26 05:23:16;;;;;;;31.80;23.63;;;;;;;;;;5021186;28;20145;-77
2021/07/26 05:25:43;;;;;;;23.67;21.10;;;;;;;;;;5024640;28;20053;-77
2021/07/26 05:28:10;;;;;;;22.92;18.85;;;;;;;;;;5021543;28;20053;-77
2021/07/26 05:30:36;;;;;;;26.92;20.00;;;;;;;;;;5021686;28;20049;-77
2021/07/26 05:33:02;;;;;;;24.70;19.13;;;;;;;;;;5021014;28;20042;-77
2021/07/26 05:35:30;;;;;;;23.70;19.33;;;;;;;;;;5021565;28;20049;-77
2021/07/26 05:37:57;;;;;;;19.58;17.50;;;;;;;;;;5023298;28;20053;-77
2021/07/26 05:40:23;;;;;;;24.67;19.40;;;;;;;;;;5022807;28;20508;-77
2021/07/26 05:42:49;;;;;;;22.88;18.85;;;;;;;;;;5019886;28;20569;-77
2021/07/26 05:45:15;;;;;;;25.67;18.90;;;;;;;;;;5021845;28;20052;-77
2021/07/26 05:47:41;;;;;;;24.05;19.60;;;;;;;;;;5017547;28;20057;-77
2021/07/26 05:50:08;;;;;;;21.15;18.42;;;;;;;;;;5019398;28;20121;-77
2021/07/26 05:52:34;;;;;;;22.00;17.00;;;;;;;;;;5019928;28;20064;-77
2021/07/26 05:55:00;;;;;;;23.35;18.55;;;;;;;;;;5020962;28;20046;-77
2021/07/26 05:57:27;;;;;;;22.67;17.40;;;;;;;;;;5026552;28;20153;-77
2021/07/26 05:59:57;;;;;;;23.10;18.50;;;;;;;;;;5019023;28;20047;-77
2021/07/26 06:02:23;;;;;;;24.23;18.13;;;;;;;;;;5024596;28;20045;-77
2021/07/26 06:04:49;;;;;;;20.52;16.75;;;;;;;;;;5028514;28;20046;-77
2021/07/26 06:07:17;;;;;;;19.48;17.38;;;;;;;;;;5027358;28;20064;-77
2021/07/26 06:09:46;;;;;;;22.67;17.73;;;;;;;;;;5019544;28;20052;-67
2021/07/26 06:12:12;;;;;;;19.58;16.83;;;;;;;;;;5021821;28;20084;-66
2021/07/26 06:14:39;;;;;;;19.88;17.77;;;;;;;;;;5019833;28;20464;-66
2021/07/26 06:17:07;;;;;;;21.92;17.05;;;;;;;;;;5015131;28;20354;-66
2021/07/26 06:19:33;;;;;;;20.23;17.63;;;;;;;;;;5023940;28;20057;-66
2021/07/26 06:22:00;;;;;;;17.75;15.05;;;;;;;;;;5021756;28;20104;-66
2021/07/26 06:24:26;;;;;;;18.35;16.35;;;;;;;;;;5019485;28;20119;-66
2021/07/26 06:26:55;;;;;;;17.20;14.68;;;;;;;;;;5022375;28;20046;-66
2021/07/26 06:29:22;;;;;;;17.80;14.75;;;;;;;;;;5017118;28;20230;-66
2021/07/26 06:31:49;;;;;;;19.17;15.75;;;;;;;;;;5024686;28;20049;-66
2021/07/26 06:34:15;;;;;;;18.65;14.88;;;;;;;;;;5022423;28;20112;-66
2021/07/26 06:36:41;;;;;;;16.27;12.77;;;;;;;;;;5021483;28;20505;-66
2021/07/26 06:39:09;;;;;;;17.00;13.95;;;;;;;;;;5025755;28;20063;-66
2021/07/26 06:41:35;;;;;;;16.52;12.43;;;;;;;;;;5031263;28;20057;-66
2021/07/26 06:44:01;;;;;;;15.90;12.73;;;;;;;;;;5029674;28;20072;-66
2021/07/26 06:46:28;;;;;;;15.55;13.80;;;;;;;;;;5030017;28;20076;-66
2021/07/26 06:48:55;;;;;;;17.15;13.98;;;;;;;;;;5032410;28;20187;-66
2021/07/26 06:51:22;;;;;;;14.05;12.05;;;;;;;;;;5032110;28;20072;-66
2021/07/26 06:53:49;;;;;;;15.40;12.82;;;;;;;;;;5023454;28;20048;-66
2021/07/26 06:56:15;;;;;;;16.25;12.85;;;;;;;;;;5024142;28;20065;-66
2021/07/26 06:58:41;;;;;;;19.88;12.75;;;;;;;;;;5029148;28;20284;-66
2021/07/26 07:01:11;;;;;;;12.07;10.85;;;;;;;;;;5030107;28;20049;-67
2021/07/26 07:03:37;;;;;;;12.90;11.30;;;;;;;;;;5025042;28;20053;-66
2021/07/26 07:06:04;;;;;;;13.50;10.48;;;;;;;;;;5032189;28;20094;-67
2021/07/26 07:08:31;;;;;;;15.23;10.93;;;;;;;;;;5031383;28;20056;-67
2021/07/26 07:11:05;;;;;;;13.02;10.82;;;;;;;;;;5032048;28;20401;-66
2021/07/26 07:13:32;;;;;;;14.25;10.95;;;;;;;;;;5030826;28;20045;-66
2021/07/26 07:15:58;;;;;;;13.70;9.70;;;;;;;;;;5032045;28;20478;-66
2021/07/26 07:18:24;;;;;;;12.15;9.90;;;;;;;;;;5032137;28;20052;-67
2021/07/26 07:20:50;;;;;;;12.05;9.10;;;;;;;;;;5031249;28;20235;-67
2021/07/26 07:23:17;;;;;;;11.70;8.98;;;;;;;;;;5027490;28;20144;-67
2021/07/26 07:25:43;;;;;;;11.55;9.10;;;;;;;;;;5031697;28;20162;-67
2021/07/26 07:28:09;;;;;;;13.82;10.10;;;;;;;;;;5031124;28;20080;-67
2021/07/26 07:30:37;;;;;;;13.07;9.52;;;;;;;;;;5031771;28;20092;-66
2021/07/26 07:33:03;;;;;;;12.13;9.90;;;;;;;;;;5028103;28;20042;-66
2021/07/26 07:35:30;;;;;;;11.95;8.98;;;;;;;;;;5027858;28;20041;-67
2021/07/26 07:37:56;;;;;;;10.30;8.38;;;;;;;;;;5031944;28;20136;-67
2021/07/26 07:40:23;;;;;;;12.05;9.15;;;;;;;;;;5031239;28;20076;-67
2021/07/26 07:42:50;;;;;;;12.20;9.50;;;;;;;;;;5030922;28;20064;-67
2021/07/26 07:45:16;;;;;;;12.05;8.60;;;;;;;;;;5026191;28;20115;-67
2021/07/26 07:47:42;;;;;;;11.20;7.93;;;;;;;;;;5031576;28;20049;-66
2021/07/26 07:50:11;;;;;;;12.63;9.50;;;;;;;;;;5030635;28;20046;-67
2021/07/26 07:52:38;;;;;;;11.93;9.07;;;;;;;;;;5031594;28;20134;-67
2021/07/26 07:55:05;;;;;;;11.13;9.05;;;;;;;;;;5027340;28;20042;-67
2021/07/26 07:57:35;;;;;;;11.88;9.40;;;;;;;;;;5030534;28;20136;-66
2021/07/26 08:00:02;;;;;;;12.20;8.25;;;;;;;;;;5031514;28;20037;-67
2021/07/26 08:02:28;;;;;;;11.57;9.05;;;;;;;;;;5031017;28;20068;-66
2021/07/26 08:04:54;;;;;;;11.10;8.48;;;;;;;;;;5027696;28;20049;-67
2021/07/26 08:07:20;;;;;;;11.07;7.93;;;;;;;;;;5031347;28;20489;-66
2021/07/26 08:09:46;;;;;;;12.35;8.82;;;;;;;;;;5030295;28;20060;-67
2021/07/26 08:12:14;;;;;;;13.23;7.50;;;;;;;;;;5031099;28;20508;-67
2021/07/26 08:14:40;;;;;;;11.43;7.35;;;;;;;;;;5029202;28;20116;-67
2021/07/26 08:17:06;;;;;;;10.13;7.13;;;;;;;;;;5030201;28;20409;-67
2021/07/26 08:19:32;;;;;;;8.35;6.75;;;;;;;;;;5031370;28;20045;-67
2021/07/26 08:21:59;;;;;;;10.73;6.43;;;;;;;;;;5021695;28;20056;-67
2021/07/26 08:24:26;;;;;;;8.88;6.50;;;;;;;;;;5029765;28;20060;-67
2021/07/26 08:26:52;;;;;;;9.25;6.35;;;;;;;;;;5030717;28;20057;-67
2021/07/26 08:29:18;;;;;;;10.05;6.47;;;;;;;;;;5030883;28;20057;-67
2021/07/26 08:31:44;;;;;;;10.55;6.55;;;;;;;;;;5028965;28;20142;-67
2021/07/26 08:34:10;;;;;;;10.52;6.13;;;;;;;;;;5017326;28;20050;-67
2021/07/26 08:36:37;;;;;;;9.38;6.15;;;;;;;;;;5028184;28;20137;-67
2021/07/26 08:39:03;;;;;;;10.10;7.05;;;;;;;;;;5030138;28;20472;-67
2021/07/26 08:41:29;;;;;;;9.98;6.38;;;;;;;;;;5030784;28;20132;-67
2021/07/26 08:43:56;;;;;;;11.77;7.68;;;;;;;;;;5030499;28;20096;-67
2021/07/26 08:46:23;;;;;;;9.15;5.03;;;;;;;;;;5028542;28;20045;-67
2021/07/26 08:48:50;;;;;;;8.48;5.07;;;;;;;;;;5030374;28;20041;-67
2021/07/26 08:51:17;;;;;;;9.20;5.38;;;;;;;;;;5029887;28;20052;-67
2021/07/26 08:53:44;;;;;;;8.27;4.60;;;;;;;;;;5029859;28;20049;-67
2021/07/26 08:56:10;;;;;;;9.38;5.47;;;;;;;;;;5025556;28;20046;-67
2021/07/26 08:58:37;;;;;;;9.00;5.35;;;;;;;;;;5021773;28;20049;-67
2021/07/26 09:01:03;;;;;;;10.18;5.32;;;;;;;;;;5029552;28;20046;-67
2021/07/26 09:03:29;;;;;;;8.10;4.82;;;;;;;;;;5030395;28;20125;-67
2021/07/26 09:05:56;;;;;;;7.82;4.75;;;;;;;;;;5029106;28;20044;-67
2021/07/26 09:08:22;;;;;;;8.98;4.63;;;;;;;;;;5018339;28;20445;-67
2021/07/26 09:10:48;;;;;;;8.20;4.57;;;;;;;;;;5030346;28;20107;-67
2021/07/26 09:13:32;;;;;;;5.50;3.95;;;;;;;;;;5029379;28;20050;-67
2021/07/26 09:16:13;;;;;;;7.88;5.18;;;;;;;;;;5030309;28;20049;-67
2021/07/26 09:18:39;;;;;;;7.05;4.88;;;;;;;;;;5019211;28;20061;-67
2021/07/26 09:21:05;;;;;;;9.45;5.68;;;;;;;;;;5029472;28;20108;-67
2021/07/26 09:23:34;;;;;;;9.75;5.30;;;;;;;;;;5030249;28;20105;-67
2021/07/26 09:26:03;;;;;;;8.07;5.43;;;;;;;;;;5029647;28;20494;-67
2021/07/26 09:28:33;;;;;;;8.50;6.03;;;;;;;;;;5015446;28;20052;-66
2021/07/26 09:31:07;;;;;;;6.88;4.97;;;;;;;;;;5030122;28;20107;-67
2021/07/26 09:33:33;;;;;;;8.43;5.55;;;;;;;;;;5029824;28;20561;-67
2021/07/26 09:36:04;;;;;;;10.35;4.90;;;;;;;;;;5029269;28;20091;-67
2021/07/26 09:38:31;;;;;;;7.90;5.60;;;;;;;;;;5017751;28;20053;-67
2021/07/26 09:40:58;;;;;;;9.50;5.53;;;;;;;;;;5028678;28;20100;-67
2021/07/26 09:43:25;;;;;;;8.02;4.80;;;;;;;;;;5029331;28;20117;-67
2021/07/26 09:45:54;;;;;;;9.88;5.47;;;;;;;;;;5029796;28;20056;-67
2021/07/26 09:48:22;;;;;;;7.72;5.43;;;;;;;;;;5021306;28;20068;-67
2021/07/26 09:50:49;;;;;;;11.52;5.85;;;;;;;;;;5026705;28;20037;-67
2021/07/26 09:53:17;;;;;;;7.93;5.40;;;;;;;;;;5029778;28;20513;-67
2021/07/26 09:55:45;;;;;;;10.18;5.85;;;;;;;;;;5028822;28;20454;-67
2021/07/26 09:58:12;;;;;;;8.90;5.97;;;;;;;;;;5028186;28;20048;-67
2021/07/26 10:00:39;;;;;;;8.43;5.35;;;;;;;;;;5029876;28;20052;-67
2021/07/26 10:03:07;;;;;;;6.18;4.15;;;;;;;;;;5030310;28;20056;-67
2021/07/26 10:05:34;;;;;;;7.80;5.28;;;;;;;;;;5033344;28;20125;-67
2021/07/26 10:08:02;;;;;;;8.73;5.22;;;;;;;;;;5033648;28;20045;-67
2021/07/26 10:10:30;;;;;;;6.57;4.50;;;;;;;;;;5032092;28;20152;-67
2021/07/26 10:12:56;;;;;;;8.70;4.93;;;;;;;;;;5033021;28;20473;-67
2021/07/26 10:15:22;;;;;;;8.30;4.43;;;;;;;;;;5033314;28;20084;-67
2021/07/26 10:17:49;;;;;;;11.18;4.97;;;;;;;;;;5030515;28;20075;-67
2021/07/26 10:20:22;;;;;;;7.03;4.53;;;;;;;;;;5033413;28;20041;-67
2021/07/26 10:23:10;;;;;;;5.82;3.75;;;;;;;;;;5033135;28;20045;-67
2021/07/26 10:25:38;;;;;;;8.93;4.82;;;;;;;;;;5032193;28;20173;-67
2021/07/26 10:28:11;;;;;;;6.97;4.00;;;;;;;;;;5031259;28;20079;-67
2021/07/26 10:30:38;;;;;;;7.03;4.07;;;;;;;;;;5030725;28;20566;-67
2021/07/26 10:33:05;;;;;;;10.88;4.28;;;;;;;;;;5033155;28;20393;-67
2021/07/26 10:35:33;;;;;;;7.20;3.10;;;;;;;;;;5032904;28;20059;-67
2021/07/26 10:37:59;;;;;;;8.85;3.42;;;;;;;;;;5025667;28;20486;-67
2021/07/26 10:40:29;;;;;;;6.53;3.42;;;;;;;;;;5028367;28;20148;-67
2021/07/26 10:43:00;;;;;;;5.47;3.53;;;;;;;;;;5032720;28;20046;-67
2021/07/26 10:45:33;;;;;;;8.30;4.15;;;;;;;;;;5031998;28;20086;-67
2021/07/26 10:48:18;;;;;;;6.20;3.90;;;;;;;;;;5029377;28;20177;-67
2021/07/26 10:50:45;;;;;;;7.13;3.78;;;;;;;;;;5028922;28;20081;-67
2021/07/26 10:53:11;;;;;;;6.70;4.47;;;;;;;;;;5031922;28;20049;-67
2021/07/26 10:55:59;;;;;;;7.22;5.10;;;;;;;;;;5032263;28;20054;-67
2021/07/26 10:58:40;;;;;;;11.70;4.55;;;;;;;;;;5027957;28;20096;-67
2021/07/26 11:01:20;;;;;;;10.10;4.90;;;;;;;;;;5030310;28;20041;-67
2021/07/26 11:03:47;;;;;;;7.78;4.68;;;;;;;;;;5032246;28;20470;-67
2021/07/26 11:06:32;;;;;;;6.32;4.63;;;;;;;;;;5031612;28;20045;-67
2021/07/26 11:09:18;;;;;;;14.57;6.13;;;;;;;;;;5031632;28;20132;-67
2021/07/26 11:11:44;;;;;;;8.82;6.15;;;;;;;;;;5019503;28;20045;-67
2021/07/26 11:14:12;;;;;;;7.38;4.18;;;;;;;;;;5030557;28;20354;-67
2021/07/26 11:17:00;;;;;;;7.10;4.60;;;;;;;;;;5031967;28;20500;-67
2021/07/26 11:19:34;;;;;;;7.80;5.00;;;;;;;;;;5025858;28;20208;-67
2021/07/26 11:22:01;;;;;;;9.68;4.63;;;;;;;;;;5032458;28;20045;-67
2021/07/26 11:24:42;;;;;;;7.10;4.80;;;;;;;;;;5031816;28;20045;-67
2021/07/26 11:27:08;;;;;;;6.68;5.05;;;;;;;;;;5029425;28;20042;-67
2021/07/26 11:29:35;;;;;;;8.63;5.38;;;;;;;;;;5031265;28;20045;-67
2021/07/26 11:32:02;;;;;;;8.35;5.80;;;;;;;;;;5031816;28;20045;-67
2021/07/26 11:34:29;;;;;;;8.15;5.10;;;;;;;;;;5031070;28;20045;-67
2021/07/26 11:37:02;;;;;;;7.82;5.05;;;;;;;;;;5031503;28;20117;-67
2021/07/26 11:39:43;;;;;;;6.82;4.38;;;;;;;;;;5031391;28;20049;-67
2021/07/26 11:42:09;;;;;;;8.25;3.63;;;;;;;;;;5026654;28;20077;-67
2021/07/26 11:44:36;;;;;;;6.22;3.75;;;;;;;;;;5031651;28;20057;-67
2021/07/26 11:47:02;;;;;;;6.30;3.42;;;;;;;;;;5031667;28;20057;-67
2021/07/26 11:49:28;;;;;;;9.45;3.20;;;;;;;;;;5030686;28;20042;-67
2021/07/26 11:52:08;;;;;;;5.63;3.20;;;;;;;;;;5025821;28;20042;-67
2021/07/26 11:54:34;;;;;;;5.70;3.50;;;;;;;;;;5031603;28;20555;-67
2021/07/26 11:57:07;;;;;;;7.60;3.75;;;;;;;;;;5030626;28;20046;-67
2021/07/26 11:59:34;;;;;;;6.00;3.67;;;;;;;;;;5031119;28;20048;-67
2021/07/26 12:02:07;;;;;;;6.40;4.20;;;;;;;;;;5028643;28;20116;-67
2021/07/26 12:04:34;;;;;;;6.85;3.33;;;;;;;;;;5030985;28;20049;-67
2021/07/26 12:07:01;;;;;;;7.25;3.63;;;;;;;;;;5031337;28;20136;-67
2021/07/26 12:09:28;;;;;;;6.90;4.30;;;;;;;;;;5030100;28;20053;-67
2021/07/26 12:11:55;;;;;;;7.57;4.05;;;;;;;;;;5028999;28;20049;-67
2021/07/26 12:14:23;;;;;;;8.43;4.90;;;;;;;;;;5030869;28;20053;-67
2021/07/26 12:17:07;;;;;;;7.43;4.65;;;;;;;;;;5030159;28;20051;-67
2021/07/26 12:19:35;;;;;;;7.55;4.85;;;;;;;;;;5030681;28;20190;-67
2021/07/26 12:22:18;;;;;;;9.15;5.13;;;;;;;;;;5030256;28;20045;-67
2021/07/26 12:24:45;;;;;;;7.22;4.13;;;;;;;;;;5029889;28;20554;-67
2021/07/26 12:27:11;;;;;;;5.68;3.55;;;;;;;;;;5030305;28;20045;-67
2021/07/26 12:29:53;;;;;;;6.00;4.18;;;;;;;;;;5031175;28;20056;-67
2021/07/26 12:32:19;;;;;;;10.55;5.30;;;;;;;;;;5028852;28;20108;-68
2021/07/26 12:35:04;;;;;;;8.68;3.35;;;;;;;;;;5029487;28;20048;-67
2021/07/26 12:37:30;;;;;;;9.95;4.40;;;;;;;;;;5029814;28;20061;-67
2021/07/26 12:40:11;;;;;;;4.82;3.50;;;;;;;;;;5031008;28;20075;-67
2021/07/26 12:42:38;;;;;;;7.57;4.13;;;;;;;;;;5029919;28;20500;-67
2021/07/26 12:45:17;;;;;;;8.77;4.25;;;;;;;;;;5029886;28;20346;-67
2021/07/26 12:47:44;;;;;;;6.03;4.20;;;;;;;;;;5030453;28;20104;-67
2021/07/26 12:50:10;;;;;;;7.13;4.65;;;;;;;;;;5030585;28;20432;-67
2021/07/26 12:52:36;;;;;;;7.05;4.68;;;;;;;;;;5029134;28;20049;-67
2021/07/26 12:55:02;;;;;;;7.20;4.47;;;;;;;;;;5030687;28;20556;-67
2021/07/26 12:57:28;;;;;;;6.65;4.10;;;;;;;;;;5029361;28;20061;-68
2021/07/26 12:59:55;;;;;;;7.75;3.78;;;;;;;;;;5028111;28;20056;-68
2021/07/26 13:02:21;;;;;;;10.52;4.35;;;;;;;;;;5020320;28;20532;-68
2021/07/26 13:04:47;;;;;;;9.85;5.38;;;;;;;;;;5016746;28;20046;-68
2021/07/26 13:07:15;;;;;;;9.00;4.03;;;;;;;;;;5022803;28;20041;-68
2021/07/26 13:09:41;;;;;;;11.23;4.18;;;;;;;;;;5023461;28;20133;-69
2021/07/26 13:12:08;;;;;;;8.10;4.40;;;;;;;;;;5020617;28;20044;-68
2021/07/26 13:14:34;;;;;;;8.43;5.15;;;;;;;;;;5013778;28;20054;-68
2021/07/26 13:17:00;;;;;;;9.15;6.03;;;;;;;;;;5020083;28;20058;-67
2021/07/26 13:19:26;;;;;;;8.73;5.78;;;;;;;;;;5022001;28;20082;-68
2021/07/26 13:21:52;;;;;;;6.88;5.13;;;;;;;;;;5022056;28;20057;-68
2021/07/26 13:24:19;;;;;;;6.93;4.88;;;;;;;;;;5025477;28;20046;-68
2021/07/26 13:26:45;;;;;;;7.53;4.53;;;;;;;;;;5028508;28;20061;-68
2021/07/26 13:29:11;;;;;;;6.95;4.95;;;;;;;;;;5025698;28;20064;-68
2021/07/26 13:31:38;;;;;;;6.28;4.18;;;;;;;;;;5028891;28;20045;-68
2021/07/26 13:34:06;;;;;;;7.07;4.03;;;;;;;;;;5023797;28;20504;-68
2021/07/26 13:36:32;;;;;;;7.43;3.72;;;;;;;;;;5021467;28;20057;-68
2021/07/26 13:38:58;;;;;;;7.63;3.00;;;;;;;;;;5030063;28;20041;-68
2021/07/26 13:41:24;;;;;;;4.72;2.80;;;;;;;;;;5009788;28;20096;-68
2021/07/26 13:43:50;;;;;;;4.25;3.15;;;;;;;;;;5029023;28;20094;-68
2021/07/26 13:46:17;;;;;;;4.85;3.13;;;;;;;;;;5031706;28;20088;-67
2021/07/26 13:48:43;;;;;;;5.18;2.90;;;;;;;;;;5024201;28;20049;-68
2021/07/26 13:51:09;;;;;;;5.30;2.63;;;;;;;;;;5032943;28;20048;-68
2021/07/26 13:53:35;;;;;;;4.35;2.42;;;;;;;;;;5032801;28;20052;-68
2021/07/26 13:56:01;;;;;;;5.57;2.67;;;;;;;;;;5029860;28;20128;-68
2021/07/26 13:58:28;;;;;;;14.77;3.65;;;;;;;;;;5033234;28;20346;-67
2021/07/26 14:00:54;;;;;;;9.27;3.47;;;;;;;;;;5032870;28;20199;-68
2021/07/26 14:03:21;;;;;;;9.65;3.72;;;;;;;;;;5032798;28;20041;-68
2021/07/26 14:05:47;;;;;;;9.75;3.78;;;;;;;;;;5032792;28;20102;-67
2021/07/26 14:08:15;;;;;;;10.40;3.55;;;;;;;;;;5032985;28;20522;-68
2021/07/26 14:10:41;;;;;;;8.32;3.97;;;;;;;;;;5032687;28;20049;-68
2021/07/26 14:13:08;;;;;;;8.95;3.15;;;;;;;;;;5032852;28;20069;-68
2021/07/26 14:15:35;;;;;;;7.25;3.40;;;;;;;;;;5027094;28;20045;-68
2021/07/26 14:18:01;;;;;;;9.07;3.50;;;;;;;;;;5023152;28;20038;-68
2021/07/26 14:20:27;;;;;;;8.10;3.08;;;;;;;;;;5016783;28;20048;-68
2021/07/26 14:22:53;;;;;;;6.35;3.03;;;;;;;;;;5016529;28;20034;-68
2021/07/26 14:25:20;;;;;;;8.77;3.25;;;;;;;;;;5025375;28;20455;-68
2021/07/26 14:27:46;;;;;;;8.98;2.97;;;;;;;;;;5024076;28;20693;-68
2021/07/26 14:30:12;;;;;;;6.65;2.97;;;;;;;;;;5028427;28;20049;-68
2021/07/26 14:32:39;;;;;;;5.30;2.78;;;;;;;;;;5023508;28;20045;-68